sensor_id;sensor_type;location;lat;lon;timestamp;temperature;humidity
17697;DHT22;8967;47.984;7.842;2023-04-01T00:00:26;11.30;98.00
17697;DHT22;8967;47.984;7.842;2023-04-01T00:02:53;11.20;98.10
17697;DHT22;8967;47.984;7.842;2023-04-01T00:05:20;11.20;98.60
17697;DHT22;8967;47.984;7.842;2023-04-01T00:07:50;11.20;98.80
17697;DHT22;8967;47.984;7.842;2023-04-01T00:10:17;11.20;99.20
17697;DHT22;8967;47.984;7.842;2023-04-01T00:12:46;11.10;99.50
17697;DHT22;8967;47.984;7.842;2023-04-01T00:15:18;11.10;99.80
17697;DHT22;8967;47.984;7.842;2023-04-01T00:17:48;11.00;99.90
17697;DHT22;8967;47.984;7.842;2023-04-01T00:20:15;11.00;99.90
17697;DHT22;8967;47.984;7.842;2023-04-01T00:22:44;11.00;99.90
17697;DHT22;8967;47.984;7.842;2023-04-01T00:25:11;10.90;99.90
17697;DHT22;8967;47.984;7.842;2023-04-01T00:27:39;10.90;99.90
17697;DHT22;8967;47.984;7.842;2023-04-01T00:30:08;10.80;99.90
17697;DHT22;8967;47.984;7.842;2023-04-01T00:32:40;10.80;99.90
17697;DHT22;8967;47.984;7.842;2023-04-01T00:35:07;10.70;99.90
17697;DHT22;8967;47.984;7.842;2023-04-01T00:37:34;10.80;99.90
17697;DHT22;8967;47.984;7.842;2023-04-01T00:40:02;10.70;99.90
17697;DHT22;8967;47.984;7.842;2023-04-01T00:42:32;10.70;99.90
17697;DHT22;8967;47.984;7.842;2023-04-01T00:45:26;10.70;99.90
17697;DHT22;8967;47.984;7.842;2023-04-01T00:47:54;10.70;99.90
17697;DHT22;8967;47.984;7.842;2023-04-01T00:50:26;10.70;99.90
17697;DHT22;8967;47.984;7.842;2023-04-01T00:53:00;10.70;99.90
17697;DHT22;8967;47.984;7.842;2023-04-01T00:55:29;10.70;99.90
17697;DHT22;8967;47.984;7.842;2023-04-01T00:57:57;10.70;99.90
17697;DHT22;8967;47.984;7.842;2023-04-01T01:00:29;10.70;99.90
17697;DHT22;8967;47.984;7.842;2023-04-01T01:02:58;10.80;99.90
17697;DHT22;8967;47.984;7.842;2023-04-01T01:05:34;10.70;99.90
17697;DHT22;8967;47.984;7.842;2023-04-01T01:08:17;10.70;99.90
17697;DHT22;8967;47.984;7.842;2023-04-01T01:10:52;10.70;99.90
17697;DHT22;8967;47.984;7.842;2023-04-01T01:13:32;10.70;99.90
17697;DHT22;8967;47.984;7.842;2023-04-01T01:16:05;10.70;99.90
17697;DHT22;8967;47.984;7.842;2023-04-01T01:18:39;10.70;99.90
17697;DHT22;8967;47.984;7.842;2023-04-01T01:21:38;10.80;99.90
17697;DHT22;8967;47.984;7.842;2023-04-01T01:24:50;10.80;99.90
17697;DHT22;8967;47.984;7.842;2023-04-01T01:27:20;10.80;99.90
17697;DHT22;8967;47.984;7.842;2023-04-01T01:30:26;10.80;99.90
17697;DHT22;8967;47.984;7.842;2023-04-01T01:33:13;10.80;99.90
17697;DHT22;8967;47.984;7.842;2023-04-01T01:35:47;10.80;99.90
17697;DHT22;8967;47.984;7.842;2023-04-01T01:38:21;10.80;99.90
17697;DHT22;8967;47.984;7.842;2023-04-01T01:41:02;10.80;99.90
17697;DHT22;8967;47.984;7.842;2023-04-01T01:43:35;10.90;99.90
17697;DHT22;8967;47.984;7.842;2023-04-01T01:46:08;10.90;99.90
17697;DHT22;8967;47.984;7.842;2023-04-01T01:48:36;10.90;99.90
17697;DHT22;8967;47.984;7.842;2023-04-01T01:51:07;10.90;99.90
17697;DHT22;8967;47.984;7.842;2023-04-01T01:53:34;10.90;99.90
17697;DHT22;8967;47.984;7.842;2023-04-01T01:56:02;10.90;99.90
17697;DHT22;8967;47.984;7.842;2023-04-01T01:58:36;10.90;99.90
17697;DHT22;8967;47.984;7.842;2023-04-01T02:01:11;10.90;99.90
17697;DHT22;8967;47.984;7.842;2023-04-01T02:03:45;10.90;99.90
17697;DHT22;8967;47.984;7.842;2023-04-01T02:06:22;10.90;99.90
17697;DHT22;8967;47.984;7.842;2023-04-01T02:08:52;10.90;99.90
17697;DHT22;8967;47.984;7.842;2023-04-01T02:11:25;10.90;99.90
17697;DHT22;8967;47.984;7.842;2023-04-01T02:13:55;10.80;99.90
17697;DHT22;8967;47.984;7.842;2023-04-01T02:16:27;10.80;99.90
17697;DHT22;8967;47.984;7.842;2023-04-01T02:18:58;10.80;99.90
17697;DHT22;8967;47.984;7.842;2023-04-01T02:21:30;10.80;99.90
17697;DHT22;8967;47.984;7.842;2023-04-01T02:23:59;10.80;99.90
17697;DHT22;8967;47.984;7.842;2023-04-01T02:26:30;10.80;99.90
17697;DHT22;8967;47.984;7.842;2023-04-01T02:28:58;10.80;99.90
17697;DHT22;8967;47.984;7.842;2023-04-01T02:31:28;10.90;99.90
17697;DHT22;8967;47.984;7.842;2023-04-01T02:33:56;10.80;99.90
17697;DHT22;8967;47.984;7.842;2023-04-01T02:36:24;10.80;99.90
17697;DHT22;8967;47.984;7.842;2023-04-01T02:38:54;10.90;99.90
17697;DHT22;8967;47.984;7.842;2023-04-01T02:41:22;10.80;99.90
17697;DHT22;8967;47.984;7.842;2023-04-01T02:43:49;10.90;99.90
17697;DHT22;8967;47.984;7.842;2023-04-01T02:46:16;10.80;99.90
17697;DHT22;8967;47.984;7.842;2023-04-01T02:48:43;10.80;99.90
17697;DHT22;8967;47.984;7.842;2023-04-01T02:51:10;10.80;99.90
17697;DHT22;8967;47.984;7.842;2023-04-01T02:53:37;10.80;99.90
17697;DHT22;8967;47.984;7.842;2023-04-01T02:56:05;10.70;99.90
17697;DHT22;8967;47.984;7.842;2023-04-01T02:58:32;10.70;99.90
17697;DHT22;8967;47.984;7.842;2023-04-01T03:01:02;10.70;99.90
17697;DHT22;8967;47.984;7.842;2023-04-01T03:03:28;10.60;99.90
17697;DHT22;8967;47.984;7.842;2023-04-01T03:05:55;10.70;99.90
17697;DHT22;8967;47.984;7.842;2023-04-01T03:08:24;10.60;99.90
17697;DHT22;8967;47.984;7.842;2023-04-01T03:10:51;10.60;99.90
17697;DHT22;8967;47.984;7.842;2023-04-01T03:13:19;10.60;99.90
17697;DHT22;8967;47.984;7.842;2023-04-01T03:15:46;10.60;99.90
17697;DHT22;8967;47.984;7.842;2023-04-01T03:18:15;10.60;99.90
17697;DHT22;8967;47.984;7.842;2023-04-01T03:20:42;10.60;99.90
17697;DHT22;8967;47.984;7.842;2023-04-01T03:23:12;10.60;99.90
17697;DHT22;8967;47.984;7.842;2023-04-01T03:25:41;10.60;99.90
17697;DHT22;8967;47.984;7.842;2023-04-01T03:28:08;10.60;99.90
17697;DHT22;8967;47.984;7.842;2023-04-01T03:30:38;10.60;99.90
17697;DHT22;8967;47.984;7.842;2023-04-01T03:33:05;10.60;99.90
17697;DHT22;8967;47.984;7.842;2023-04-01T03:35:34;10.60;99.90
17697;DHT22;8967;47.984;7.842;2023-04-01T03:38:06;10.60;99.90
17697;DHT22;8967;47.984;7.842;2023-04-01T03:40:33;10.60;99.90
17697;DHT22;8967;47.984;7.842;2023-04-01T03:43:05;10.60;99.90
17697;DHT22;8967;47.984;7.842;2023-04-01T03:45:36;10.50;99.90
17697;DHT22;8967;47.984;7.842;2023-04-01T03:48:12;10.50;99.90
17697;DHT22;8967;47.984;7.842;2023-04-01T03:50:42;10.50;99.90
17697;DHT22;8967;47.984;7.842;2023-04-01T03:53:09;10.50;99.90
17697;DHT22;8967;47.984;7.842;2023-04-01T03:55:40;10.50;99.90
17697;DHT22;8967;47.984;7.842;2023-04-01T03:58:07;10.40;99.90
17697;DHT22;8967;47.984;7.842;2023-04-01T04:00:34;10.40;99.90
17697;DHT22;8967;47.984;7.842;2023-04-01T04:03:03;10.30;99.90
17697;DHT22;8967;47.984;7.842;2023-04-01T04:05:33;10.30;99.90
17697;DHT22;8967;47.984;7.842;2023-04-01T04:08:00;10.20;99.90
17697;DHT22;8967;47.984;7.842;2023-04-01T04:10:27;10.20;99.90
17697;DHT22;8967;47.984;7.842;2023-04-01T04:12:55;10.20;99.90
17697;DHT22;8967;47.984;7.842;2023-04-01T04:15:25;10.20;99.90
17697;DHT22;8967;47.984;7.842;2023-04-01T04:17:52;10.20;99.90
17697;DHT22;8967;47.984;7.842;2023-04-01T04:20:21;10.20;99.90
17697;DHT22;8967;47.984;7.842;2023-04-01T04:22:50;10.20;99.90
17697;DHT22;8967;47.984;7.842;2023-04-01T04:25:17;10.20;99.90
17697;DHT22;8967;47.984;7.842;2023-04-01T04:27:44;10.20;99.90
17697;DHT22;8967;47.984;7.842;2023-04-01T04:30:13;10.20;99.90
17697;DHT22;8967;47.984;7.842;2023-04-01T04:32:40;10.20;99.90
17697;DHT22;8967;47.984;7.842;2023-04-01T04:35:16;10.20;99.90
17697;DHT22;8967;47.984;7.842;2023-04-01T04:37:47;10.20;99.90
17697;DHT22;8967;47.984;7.842;2023-04-01T04:40:17;10.20;99.90
17697;DHT22;8967;47.984;7.842;2023-04-01T04:42:44;10.20;99.90
17697;DHT22;8967;47.984;7.842;2023-04-01T04:45:14;10.20;99.90
17697;DHT22;8967;47.984;7.842;2023-04-01T04:47:52;10.20;99.90
17697;DHT22;8967;47.984;7.842;2023-04-01T04:50:19;10.20;99.90
17697;DHT22;8967;47.984;7.842;2023-04-01T04:52:48;10.20;99.90
17697;DHT22;8967;47.984;7.842;2023-04-01T04:55:22;10.20;99.90
17697;DHT22;8967;47.984;7.842;2023-04-01T04:58:01;10.30;99.90
17697;DHT22;8967;47.984;7.842;2023-04-01T05:00:28;10.30;99.90
17697;DHT22;8967;47.984;7.842;2023-04-01T05:02:59;10.30;99.90
17697;DHT22;8967;47.984;7.842;2023-04-01T05:05:28;10.30;99.90
17697;DHT22;8967;47.984;7.842;2023-04-01T05:08:02;10.20;99.90
17697;DHT22;8967;47.984;7.842;2023-04-01T05:10:29;10.30;99.90
17697;DHT22;8967;47.984;7.842;2023-04-01T05:12:57;10.30;99.90
17697;DHT22;8967;47.984;7.842;2023-04-01T05:15:24;10.30;99.90
17697;DHT22;8967;47.984;7.842;2023-04-01T05:17:50;10.30;99.90
17697;DHT22;8967;47.984;7.842;2023-04-01T05:20:17;10.30;99.90
17697;DHT22;8967;47.984;7.842;2023-04-01T05:22:44;10.30;99.90
17697;DHT22;8967;47.984;7.842;2023-04-01T05:25:13;10.30;99.90
17697;DHT22;8967;47.984;7.842;2023-04-01T05:27:41;10.30;99.90
17697;DHT22;8967;47.984;7.842;2023-04-01T05:30:11;10.30;99.90
17697;DHT22;8967;47.984;7.842;2023-04-01T05:32:57;10.30;99.90
17697;DHT22;8967;47.984;7.842;2023-04-01T05:35:24;10.30;99.90
17697;DHT22;8967;47.984;7.842;2023-04-01T05:37:51;10.30;99.90
17697;DHT22;8967;47.984;7.842;2023-04-01T05:40:22;10.40;99.90
17697;DHT22;8967;47.984;7.842;2023-04-01T05:42:49;10.40;99.90
17697;DHT22;8967;47.984;7.842;2023-04-01T05:45:16;10.40;99.90
17697;DHT22;8967;47.984;7.842;2023-04-01T05:48:02;10.40;99.90
17697;DHT22;8967;47.984;7.842;2023-04-01T05:50:35;10.30;99.90
17697;DHT22;8967;47.984;7.842;2023-04-01T05:53:06;10.30;99.90
17697;DHT22;8967;47.984;7.842;2023-04-01T05:55:37;10.40;99.90
17697;DHT22;8967;47.984;7.842;2023-04-01T05:58:05;10.40;99.90
17697;DHT22;8967;47.984;7.842;2023-04-01T06:00:36;10.40;99.90
17697;DHT22;8967;47.984;7.842;2023-04-01T06:03:03;10.40;99.90
17697;DHT22;8967;47.984;7.842;2023-04-01T06:05:38;10.40;99.90
17697;DHT22;8967;47.984;7.842;2023-04-01T06:08:13;10.50;99.90
17697;DHT22;8967;47.984;7.842;2023-04-01T06:10:55;10.50;99.90
17697;DHT22;8967;47.984;7.842;2023-04-01T06:13:33;10.50;99.90
17697;DHT22;8967;47.984;7.842;2023-04-01T06:16:09;10.50;99.90
17697;DHT22;8967;47.984;7.842;2023-04-01T06:21:47;10.50;99.90
17697;DHT22;8967;47.984;7.842;2023-04-01T06:24:33;10.60;99.90
17697;DHT22;8967;47.984;7.842;2023-04-01T06:27:13;10.60;99.90
17697;DHT22;8967;47.984;7.842;2023-04-01T06:29:53;10.60;99.90
17697;DHT22;8967;47.984;7.842;2023-04-01T06:32:40;10.60;99.90
17697;DHT22;8967;47.984;7.842;2023-04-01T06:35:35;10.70;99.90
17697;DHT22;8967;47.984;7.842;2023-04-01T06:38:30;10.70;99.90
17697;DHT22;8967;47.984;7.842;2023-04-01T06:44:14;10.70;99.90
17697;DHT22;8967;47.984;7.842;2023-04-01T06:47:18;10.70;99.90
17697;DHT22;8967;47.984;7.842;2023-04-01T06:50:15;10.80;99.90
17697;DHT22;8967;47.984;7.842;2023-04-01T06:53:12;10.80;99.90
17697;DHT22;8967;47.984;7.842;2023-04-01T06:56:11;10.80;99.90
17697;DHT22;8967;47.984;7.842;2023-04-01T06:59:13;10.80;99.90
17697;DHT22;8967;47.984;7.842;2023-04-01T07:01:47;10.80;99.90
17697;DHT22;8967;47.984;7.842;2023-04-01T07:04:18;10.90;99.90
17697;DHT22;8967;47.984;7.842;2023-04-01T07:06:50;10.90;99.90
17697;DHT22;8967;47.984;7.842;2023-04-01T07:09:20;10.90;99.90
17697;DHT22;8967;47.984;7.842;2023-04-01T07:12:20;10.90;99.90
17697;DHT22;8967;47.984;7.842;2023-04-01T07:15:16;10.90;99.90
17697;DHT22;8967;47.984;7.842;2023-04-01T07:17:47;11.00;99.90
17697;DHT22;8967;47.984;7.842;2023-04-01T07:20:20;11.00;99.90
17697;DHT22;8967;47.984;7.842;2023-04-01T07:22:51;11.00;99.90
17697;DHT22;8967;47.984;7.842;2023-04-01T07:25:31;11.10;99.90
17697;DHT22;8967;47.984;7.842;2023-04-01T07:28:30;11.10;99.90
17697;DHT22;8967;47.984;7.842;2023-04-01T07:31:14;11.10;99.90
17697;DHT22;8967;47.984;7.842;2023-04-01T07:33:54;11.10;99.90
17697;DHT22;8967;47.984;7.842;2023-04-01T07:36:32;11.20;99.90
17697;DHT22;8967;47.984;7.842;2023-04-01T07:39:07;11.20;99.90
17697;DHT22;8967;47.984;7.842;2023-04-01T07:42:14;11.20;99.90
17697;DHT22;8967;47.984;7.842;2023-04-01T07:44:47;11.20;99.90
17697;DHT22;8967;47.984;7.842;2023-04-01T07:47:39;11.20;99.90
17697;DHT22;8967;47.984;7.842;2023-04-01T07:50:15;11.20;99.90
17697;DHT22;8967;47.984;7.842;2023-04-01T07:52:49;11.20;99.90
17697;DHT22;8967;47.984;7.842;2023-04-01T07:55:26;11.20;99.90
17697;DHT22;8967;47.984;7.842;2023-04-01T07:58:00;11.20;99.90
17697;DHT22;8967;47.984;7.842;2023-04-01T08:00:42;11.20;99.90
17697;DHT22;8967;47.984;7.842;2023-04-01T08:03:32;11.20;99.90
17697;DHT22;8967;47.984;7.842;2023-04-01T08:06:10;11.30;99.90
17697;DHT22;8967;47.984;7.842;2023-04-01T08:08:51;11.30;99.90
17697;DHT22;8967;47.984;7.842;2023-04-01T08:11:51;11.30;99.90
17697;DHT22;8967;47.984;7.842;2023-04-01T08:14:48;11.30;99.90
17697;DHT22;8967;47.984;7.842;2023-04-01T08:17:46;11.30;99.90
17697;DHT22;8967;47.984;7.842;2023-04-01T08:20:25;11.30;99.90
17697;DHT22;8967;47.984;7.842;2023-04-01T08:22:59;11.30;99.90
17697;DHT22;8967;47.984;7.842;2023-04-01T08:25:38;11.30;99.90
17697;DHT22;8967;47.984;7.842;2023-04-01T08:28:13;11.30;99.90
17697;DHT22;8967;47.984;7.842;2023-04-01T08:30:44;11.30;99.90
17697;DHT22;8967;47.984;7.842;2023-04-01T08:33:19;11.40;99.90
17697;DHT22;8967;47.984;7.842;2023-04-01T08:35:59;11.30;99.90
17697;DHT22;8967;47.984;7.842;2023-04-01T08:38:30;11.40;99.90
17697;DHT22;8967;47.984;7.842;2023-04-01T08:45:16;11.40;99.90
17697;DHT22;8967;47.984;7.842;2023-04-01T08:48:13;11.40;99.90
17697;DHT22;8967;47.984;7.842;2023-04-01T08:51:17;11.40;99.90
17697;DHT22;8967;47.984;7.842;2023-04-01T08:53:59;11.50;99.90
17697;DHT22;8967;47.984;7.842;2023-04-01T08:56:40;11.50;99.90
17697;DHT22;8967;47.984;7.842;2023-04-01T08:59:40;11.50;99.90
17697;DHT22;8967;47.984;7.842;2023-04-01T09:02:51;11.50;99.90
17697;DHT22;8967;47.984;7.842;2023-04-01T09:05:47;11.50;99.90
17697;DHT22;8967;47.984;7.842;2023-04-01T09:08:35;11.60;99.90
17697;DHT22;8967;47.984;7.842;2023-04-01T09:11:08;11.60;99.90
17697;DHT22;8967;47.984;7.842;2023-04-01T09:17:45;11.70;99.90
17697;DHT22;8967;47.984;7.842;2023-04-01T09:20:30;11.70;99.90
17697;DHT22;8967;47.984;7.842;2023-04-01T09:23:25;11.70;99.90
17697;DHT22;8967;47.984;7.842;2023-04-01T09:28:57;11.70;99.90
17697;DHT22;8967;47.984;7.842;2023-04-01T09:31:44;11.70;99.90
17697;DHT22;8967;47.984;7.842;2023-04-01T09:35:01;11.70;99.90
17697;DHT22;8967;47.984;7.842;2023-04-01T09:37:35;11.70;99.80
17697;DHT22;8967;47.984;7.842;2023-04-01T09:40:18;11.80;99.60
17697;DHT22;8967;47.984;7.842;2023-04-01T09:43:20;11.80;99.20
17697;DHT22;8967;47.984;7.842;2023-04-01T09:46:04;11.80;99.60
17697;DHT22;8967;47.984;7.842;2023-04-01T09:49:00;11.80;99.50
17697;DHT22;8967;47.984;7.842;2023-04-01T09:51:38;11.80;99.50
17697;DHT22;8967;47.984;7.842;2023-04-01T09:54:26;11.80;99.50
17697;DHT22;8967;47.984;7.842;2023-04-01T09:57:17;11.80;99.60
17697;DHT22;8967;47.984;7.842;2023-04-01T10:00:25;11.90;99.50
17697;DHT22;8967;47.984;7.842;2023-04-01T10:03:30;11.90;99.70
17697;DHT22;8967;47.984;7.842;2023-04-01T10:09:37;11.90;99.10
17697;DHT22;8967;47.984;7.842;2023-04-01T10:12:36;11.90;99.10
17697;DHT22;8967;47.984;7.842;2023-04-01T10:22:04;11.90;98.50
17697;DHT22;8967;47.984;7.842;2023-04-01T10:25:14;11.90;98.30
17697;DHT22;8967;47.984;7.842;2023-04-01T10:28:13;11.90;98.20
17697;DHT22;8967;47.984;7.842;2023-04-01T10:31:33;12.00;98.10
17697;DHT22;8967;47.984;7.842;2023-04-01T10:34:34;12.00;98.40
17697;DHT22;8967;47.984;7.842;2023-04-01T10:37:22;12.00;98.30
17697;DHT22;8967;47.984;7.842;2023-04-01T10:40:16;11.90;98.30
17697;DHT22;8967;47.984;7.842;2023-04-01T10:49:37;12.00;98.70
17697;DHT22;8967;47.984;7.842;2023-04-01T10:52:46;12.00;98.20
17697;DHT22;8967;47.984;7.842;2023-04-01T11:03:28;12.00;97.70
17697;DHT22;8967;47.984;7.842;2023-04-01T11:13:40;12.10;97.70
17697;DHT22;8967;47.984;7.842;2023-04-01T11:19:46;12.00;97.80
17697;DHT22;8967;47.984;7.842;2023-04-01T11:25:53;12.00;97.80
17697;DHT22;8967;47.984;7.842;2023-04-01T11:28:57;12.00;97.80
17697;DHT22;8967;47.984;7.842;2023-04-01T11:31:39;12.00;98.00
17697;DHT22;8967;47.984;7.842;2023-04-01T11:34:32;12.00;97.80
17697;DHT22;8967;47.984;7.842;2023-04-01T11:37:14;12.00;97.70
17697;DHT22;8967;47.984;7.842;2023-04-01T11:40:14;12.00;98.00
17697;DHT22;8967;47.984;7.842;2023-04-01T11:43:14;12.10;99.10
17697;DHT22;8967;47.984;7.842;2023-04-01T11:46:11;12.10;98.70
17697;DHT22;8967;47.984;7.842;2023-04-01T11:48:49;12.20;98.60
17697;DHT22;8967;47.984;7.842;2023-04-01T11:51:55;12.40;98.40
17697;DHT22;8967;47.984;7.842;2023-04-01T11:54:45;12.50;98.00
17697;DHT22;8967;47.984;7.842;2023-04-01T11:57:49;12.60;97.80
17697;DHT22;8967;47.984;7.842;2023-04-01T12:00:33;12.60;97.70
17697;DHT22;8967;47.984;7.842;2023-04-01T12:03:21;12.70;97.70
17697;DHT22;8967;47.984;7.842;2023-04-01T12:05:58;12.70;97.20
17697;DHT22;8967;47.984;7.842;2023-04-01T12:08:39;12.60;97.10
17697;DHT22;8967;47.984;7.842;2023-04-01T12:11:15;12.70;96.70
17697;DHT22;8967;47.984;7.842;2023-04-01T12:13:49;12.60;96.60
17697;DHT22;8967;47.984;7.842;2023-04-01T12:16:36;12.60;96.80
17697;DHT22;8967;47.984;7.842;2023-04-01T12:19:15;12.60;96.80
17697;DHT22;8967;47.984;7.842;2023-04-01T12:21:52;12.60;96.50
17697;DHT22;8967;47.984;7.842;2023-04-01T12:24:45;12.60;96.70
17697;DHT22;8967;47.984;7.842;2023-04-01T12:27:41;12.60;96.50
17697;DHT22;8967;47.984;7.842;2023-04-01T12:30:47;12.60;96.50
17697;DHT22;8967;47.984;7.842;2023-04-01T12:33:33;12.60;96.60
17697;DHT22;8967;47.984;7.842;2023-04-01T12:36:13;12.60;96.50
17697;DHT22;8967;47.984;7.842;2023-04-01T12:38:51;12.60;96.40
17697;DHT22;8967;47.984;7.842;2023-04-01T12:41:29;12.60;96.50
17697;DHT22;8967;47.984;7.842;2023-04-01T12:44:22;12.60;96.60
17697;DHT22;8967;47.984;7.842;2023-04-01T12:47:18;12.60;96.60
17697;DHT22;8967;47.984;7.842;2023-04-01T12:50:02;12.60;96.70
17697;DHT22;8967;47.984;7.842;2023-04-01T12:52:44;12.60;96.80
17697;DHT22;8967;47.984;7.842;2023-04-01T12:55:28;12.60;96.90
17697;DHT22;8967;47.984;7.842;2023-04-01T13:01:16;12.60;97.00
17697;DHT22;8967;47.984;7.842;2023-04-01T13:07:01;12.60;97.30
17697;DHT22;8967;47.984;7.842;2023-04-01T13:09:40;12.60;97.20
17697;DHT22;8967;47.984;7.842;2023-04-01T13:12:29;12.60;97.20
17697;DHT22;8967;47.984;7.842;2023-04-01T13:15:20;12.60;97.20
17697;DHT22;8967;47.984;7.842;2023-04-01T13:17:56;12.60;97.30
17697;DHT22;8967;47.984;7.842;2023-04-01T13:28:11;12.70;99.90
17697;DHT22;8967;47.984;7.842;2023-04-01T13:30:44;12.70;99.90
17697;DHT22;8967;47.984;7.842;2023-04-01T13:33:19;12.70;99.90
17697;DHT22;8967;47.984;7.842;2023-04-01T13:35:53;12.70;99.90
17697;DHT22;8967;47.984;7.842;2023-04-01T13:38:56;12.70;99.90
17697;DHT22;8967;47.984;7.842;2023-04-01T13:41:43;12.70;99.90
17697;DHT22;8967;47.984;7.842;2023-04-01T13:44:24;12.70;99.90
17697;DHT22;8967;47.984;7.842;2023-04-01T13:47:11;12.70;99.90
17697;DHT22;8967;47.984;7.842;2023-04-01T13:50:06;12.70;99.90
17697;DHT22;8967;47.984;7.842;2023-04-01T13:53:04;12.70;99.90
17697;DHT22;8967;47.984;7.842;2023-04-01T13:56:01;12.70;99.90
17697;DHT22;8967;47.984;7.842;2023-04-01T13:58:43;12.80;99.90
17697;DHT22;8967;47.984;7.842;2023-04-01T14:01:25;12.80;99.90
17697;DHT22;8967;47.984;7.842;2023-04-01T14:04:26;12.80;99.90
17697;DHT22;8967;47.984;7.842;2023-04-01T14:07:00;12.90;99.90
17697;DHT22;8967;47.984;7.842;2023-04-01T14:09:45;12.90;99.90
17697;DHT22;8967;47.984;7.842;2023-04-01T14:12:26;12.90;99.90
17697;DHT22;8967;47.984;7.842;2023-04-01T14:18:36;13.00;99.90
17697;DHT22;8967;47.984;7.842;2023-04-01T14:21:23;13.00;99.90
17697;DHT22;8967;47.984;7.842;2023-04-01T14:24:27;13.10;99.90
17697;DHT22;8967;47.984;7.842;2023-04-01T14:27:44;13.10;99.90
17697;DHT22;8967;47.984;7.842;2023-04-01T14:30:30;13.10;99.90
17697;DHT22;8967;47.984;7.842;2023-04-01T14:33:32;13.10;99.90
17697;DHT22;8967;47.984;7.842;2023-04-01T14:39:38;13.10;99.90
17697;DHT22;8967;47.984;7.842;2023-04-01T14:42:35;13.00;99.90
17697;DHT22;8967;47.984;7.842;2023-04-01T14:45:34;13.00;99.90
17697;DHT22;8967;47.984;7.842;2023-04-01T14:48:17;12.90;99.90
17697;DHT22;8967;47.984;7.842;2023-04-01T14:51:22;12.90;99.90
17697;DHT22;8967;47.984;7.842;2023-04-01T15:02:00;12.80;99.90
17697;DHT22;8967;47.984;7.842;2023-04-01T15:34:48;12.80;99.90
17697;DHT22;8967;47.984;7.842;2023-04-01T16:35:04;12.50;99.90
17697;DHT22;8967;47.984;7.842;2023-04-01T16:37:42;12.50;99.90
17697;DHT22;8967;47.984;7.842;2023-04-01T16:40:24;12.50;99.90
17697;DHT22;8967;47.984;7.842;2023-04-01T16:42:53;12.50;99.90
17697;DHT22;8967;47.984;7.842;2023-04-01T16:45:32;12.50;99.90
17697;DHT22;8967;47.984;7.842;2023-04-01T16:48:07;12.50;99.90
17697;DHT22;8967;47.984;7.842;2023-04-01T16:50:44;12.50;99.90
17697;DHT22;8967;47.984;7.842;2023-04-01T16:53:19;12.50;99.90
17697;DHT22;8967;47.984;7.842;2023-04-01T16:55:52;12.40;99.90
17697;DHT22;8967;47.984;7.842;2023-04-01T16:58:27;12.40;99.90
17697;DHT22;8967;47.984;7.842;2023-04-01T17:01:05;12.40;99.90
17697;DHT22;8967;47.984;7.842;2023-04-01T17:03:38;12.40;99.90
17697;DHT22;8967;47.984;7.842;2023-04-01T17:06:28;12.40;99.90
17697;DHT22;8967;47.984;7.842;2023-04-01T17:09:23;12.40;99.90
17697;DHT22;8967;47.984;7.842;2023-04-01T17:11:56;12.40;99.90
17697;DHT22;8967;47.984;7.842;2023-04-01T17:14:28;12.30;99.90
17697;DHT22;8967;47.984;7.842;2023-04-01T17:17:09;12.30;99.90
17697;DHT22;8967;47.984;7.842;2023-04-01T17:19:49;12.30;99.90
17697;DHT22;8967;47.984;7.842;2023-04-01T17:22:32;12.30;99.90
17697;DHT22;8967;47.984;7.842;2023-04-01T17:25:29;12.30;99.90
17697;DHT22;8967;47.984;7.842;2023-04-01T17:28:14;12.30;99.90
17697;DHT22;8967;47.984;7.842;2023-04-01T17:30:51;12.30;99.90
17697;DHT22;8967;47.984;7.842;2023-04-01T17:33:30;12.30;99.90
17697;DHT22;8967;47.984;7.842;2023-04-01T17:36:15;12.30;99.90
17697;DHT22;8967;47.984;7.842;2023-04-01T17:38:56;12.30;99.90
17697;DHT22;8967;47.984;7.842;2023-04-01T17:41:32;12.30;99.90
17697;DHT22;8967;47.984;7.842;2023-04-01T17:44:12;12.30;99.90
17697;DHT22;8967;47.984;7.842;2023-04-01T17:47:00;12.20;99.90
17697;DHT22;8967;47.984;7.842;2023-04-01T17:49:37;12.20;99.90
17697;DHT22;8967;47.984;7.842;2023-04-01T17:52:12;12.10;99.90
17697;DHT22;8967;47.984;7.842;2023-04-01T17:54:50;12.10;99.90
17697;DHT22;8967;47.984;7.842;2023-04-01T17:57:30;12.10;99.90
17697;DHT22;8967;47.984;7.842;2023-04-01T18:00:02;12.10;99.90
17697;DHT22;8967;47.984;7.842;2023-04-01T18:02:41;12.10;99.90
17697;DHT22;8967;47.984;7.842;2023-04-01T18:05:35;12.00;99.90
17697;DHT22;8967;47.984;7.842;2023-04-01T18:08:15;12.00;99.90
17697;DHT22;8967;47.984;7.842;2023-04-01T18:10:57;11.90;99.90
17697;DHT22;8967;47.984;7.842;2023-04-01T18:16:45;11.80;99.90
17697;DHT22;8967;47.984;7.842;2023-04-01T18:19:25;11.80;99.90
17697;DHT22;8967;47.984;7.842;2023-04-01T18:22:17;11.70;99.90
17697;DHT22;8967;47.984;7.842;2023-04-01T18:24:49;11.60;99.90
17697;DHT22;8967;47.984;7.842;2023-04-01T18:27:24;11.60;99.90
17697;DHT22;8967;47.984;7.842;2023-04-01T18:30:03;11.50;99.90
17697;DHT22;8967;47.984;7.842;2023-04-01T18:32:36;11.50;99.90
17697;DHT22;8967;47.984;7.842;2023-04-01T18:35:21;11.50;99.90
17697;DHT22;8967;47.984;7.842;2023-04-01T18:37:55;11.40;99.90
17697;DHT22;8967;47.984;7.842;2023-04-01T18:40:30;11.30;99.90
17697;DHT22;8967;47.984;7.842;2023-04-01T18:43:16;11.30;99.90
17697;DHT22;8967;47.984;7.842;2023-04-01T18:45:53;11.30;99.90
17697;DHT22;8967;47.984;7.842;2023-04-01T18:48:37;11.30;99.90
17697;DHT22;8967;47.984;7.842;2023-04-01T18:51:12;11.20;99.90
17697;DHT22;8967;47.984;7.842;2023-04-01T18:53:44;11.20;99.90
17697;DHT22;8967;47.984;7.842;2023-04-01T18:56:15;11.20;99.90
17697;DHT22;8967;47.984;7.842;2023-04-01T18:58:54;11.10;99.90
17697;DHT22;8967;47.984;7.842;2023-04-01T19:01:34;11.10;99.90
17697;DHT22;8967;47.984;7.842;2023-04-01T19:04:29;11.00;99.90
17697;DHT22;8967;47.984;7.842;2023-04-01T19:06:59;11.00;99.90
17697;DHT22;8967;47.984;7.842;2023-04-01T19:09:31;11.00;99.90
17697;DHT22;8967;47.984;7.842;2023-04-01T19:12:24;10.90;99.90
17697;DHT22;8967;47.984;7.842;2023-04-01T19:15:14;10.90;99.90
17697;DHT22;8967;47.984;7.842;2023-04-01T19:17:58;10.90;99.90
17697;DHT22;8967;47.984;7.842;2023-04-01T19:20:35;10.80;99.90
17697;DHT22;8967;47.984;7.842;2023-04-01T19:23:34;10.80;99.90
17697;DHT22;8967;47.984;7.842;2023-04-01T19:26:09;10.80;99.90
17697;DHT22;8967;47.984;7.842;2023-04-01T19:28:44;10.70;99.90
17697;DHT22;8967;47.984;7.842;2023-04-01T19:31:34;10.70;99.90
17697;DHT22;8967;47.984;7.842;2023-04-01T19:34:10;10.70;99.90
17697;DHT22;8967;47.984;7.842;2023-04-01T19:36:45;10.70;99.90
17697;DHT22;8967;47.984;7.842;2023-04-01T19:39:31;10.70;99.90
17697;DHT22;8967;47.984;7.842;2023-04-01T19:42:08;10.70;99.90
17697;DHT22;8967;47.984;7.842;2023-04-01T19:44:47;10.70;99.90
17697;DHT22;8967;47.984;7.842;2023-04-01T19:47:28;10.70;99.90
17697;DHT22;8967;47.984;7.842;2023-04-01T19:50:04;10.70;99.90
17697;DHT22;8967;47.984;7.842;2023-04-01T19:52:37;10.70;99.90
17697;DHT22;8967;47.984;7.842;2023-04-01T19:55:17;10.60;99.90
17697;DHT22;8967;47.984;7.842;2023-04-01T19:57:54;10.60;99.90